createdAt,value
2022-10-20T00:00:26.074Z,85.00
2022-10-20T00:00:58.887Z,84.90
2022-10-20T00:01:30.833Z,84.90
2022-10-20T00:02:02.599Z,85.40
2022-10-20T00:02:34.760Z,85.40
2022-10-20T00:03:07.139Z,85.50
2022-10-20T00:03:39.583Z,85.40
2022-10-20T00:04:11.344Z,85.40
2022-10-20T00:04:43.082Z,86.20
2022-10-20T00:05:15.167Z,86.00
2022-10-20T00:05:47.023Z,85.40
2022-10-20T00:06:28.326Z,85.50
2022-10-20T00:07:00.187Z,85.90
2022-10-20T00:07:31.955Z,84.90
2022-10-20T00:08:03.917Z,85.20
2022-10-20T00:08:35.944Z,85.70
2022-10-20T00:09:07.811Z,85.70
2022-10-20T00:09:39.685Z,86.30
2022-10-20T00:10:11.593Z,85.70
2022-10-20T00:11:26.569Z,85.70
2022-10-20T00:11:58.431Z,86.50
2022-10-20T00:12:30.226Z,85.20
2022-10-20T00:13:02.058Z,85.90
2022-10-20T00:13:33.938Z,85.80
2022-10-20T00:14:06.321Z,85.20
2022-10-20T00:14:38.831Z,86.60
2022-10-20T00:15:11.016Z,85.80
2022-10-20T00:15:49.331Z,85.40
2022-10-20T00:16:22.195Z,85.70
2022-10-20T00:16:53.993Z,85.70
2022-10-20T00:17:25.893Z,85.40
2022-10-20T00:17:57.782Z,85.90
2022-10-20T00:18:29.612Z,85.80
2022-10-20T00:19:01.420Z,85.70
2022-10-20T00:19:33.208Z,85.90
2022-10-20T00:20:05.616Z,85.30
2022-10-20T00:20:40.194Z,86.00
2022-10-20T00:21:18.820Z,86.00
2022-10-20T00:21:50.771Z,85.80
2022-10-20T00:22:22.748Z,86.70
2022-10-20T00:22:54.564Z,86.40
2022-10-20T00:23:26.477Z,86.00
2022-10-20T00:24:02.382Z,87.00
2022-10-20T00:24:34.255Z,86.20
2022-10-20T00:25:06.362Z,86.20
2022-10-20T00:25:38.211Z,86.30
2022-10-20T00:26:36.152Z,85.90
2022-10-20T00:27:08.315Z,86.40
2022-10-20T00:27:40.124Z,86.00
2022-10-20T00:28:12.002Z,86.00
2022-10-20T00:28:45.159Z,86.50
2022-10-20T00:29:49.903Z,85.90
2022-10-20T00:30:23.778Z,86.40
2022-10-20T00:30:57.504Z,86.10
2022-10-20T00:31:29.578Z,86.70
2022-10-20T00:32:01.378Z,86.10
2022-10-20T00:32:33.486Z,86.90
2022-10-20T00:33:06.445Z,86.10
2022-10-20T00:33:38.404Z,86.60
2022-10-20T00:34:10.828Z,86.50
2022-10-20T00:34:42.578Z,86.50
2022-10-20T00:35:14.524Z,86.40
2022-10-20T00:35:46.374Z,86.50
2022-10-20T00:36:20.172Z,86.00
2022-10-20T00:36:52.020Z,86.00
2022-10-20T00:37:24.244Z,86.60
2022-10-20T00:37:56.488Z,86.40
2022-10-20T00:38:28.621Z,86.50
2022-10-20T00:39:02.380Z,86.50
2022-10-20T00:39:34.174Z,86.20
2022-10-20T00:40:06.394Z,86.00
2022-10-20T00:40:38.122Z,86.70
2022-10-20T00:41:14.012Z,86.80
2022-10-20T00:41:45.899Z,86.30
2022-10-20T00:42:20.659Z,86.10
2022-10-20T00:42:52.575Z,87.50
2022-10-20T00:43:45.090Z,86.80
2022-10-20T00:44:55.739Z,86.50
2022-10-20T00:45:27.598Z,86.40
2022-10-20T00:45:59.495Z,86.60
2022-10-20T00:46:41.302Z,86.00
2022-10-20T00:47:31.990Z,86.50
2022-10-20T00:48:14.662Z,86.80
2022-10-20T00:48:49.883Z,86.90
2022-10-20T00:49:25.528Z,86.90
2022-10-20T00:50:05.173Z,87.80
2022-10-20T00:50:42.422Z,86.80
2022-10-20T00:51:18.480Z,86.80
2022-10-20T00:51:52.663Z,86.90
2022-10-20T00:52:24.883Z,86.30
2022-10-20T00:52:57.482Z,86.90
2022-10-20T00:53:30.198Z,86.90
2022-10-20T00:54:13.628Z,87.60
2022-10-20T00:54:45.623Z,86.80
2022-10-20T00:55:22.660Z,87.10
2022-10-20T00:55:57.819Z,87.10
2022-10-20T00:56:30.013Z,86.70
2022-10-20T00:57:36.531Z,86.90
2022-10-20T00:58:09.044Z,87.40
2022-10-20T00:58:42.196Z,87.40
2022-10-20T00:59:18.595Z,86.80
2022-10-20T00:59:50.566Z,87.20
2022-10-20T01:00:22.860Z,87.30
2022-10-20T01:00:59.514Z,87.30
2022-10-20T01:01:32.408Z,86.90
2022-10-20T01:02:06.825Z,87.40
2022-10-20T01:02:38.750Z,87.50
2022-10-20T01:03:18.267Z,87.50
2022-10-20T01:03:52.434Z,87.30
2022-10-20T01:04:27.412Z,87.20
2022-10-20T01:04:59.518Z,88.00
2022-10-20T01:05:31.259Z,87.60
2022-10-20T01:06:04.255Z,88.20
2022-10-20T01:06:36.430Z,87.50
2022-10-20T01:07:08.236Z,86.90
2022-10-20T01:07:40.328Z,87.40
2022-10-20T01:08:12.139Z,87.40
2022-10-20T01:08:44.498Z,87.30
2022-10-20T01:09:16.470Z,86.70
2022-10-20T01:09:48.803Z,87.30
2022-10-20T01:10:23.216Z,86.80
2022-10-20T01:11:21.871Z,87.20
2022-10-20T01:12:17.603Z,87.20
2022-10-20T01:13:15.603Z,86.90
2022-10-20T01:14:01.089Z,87.20
2022-10-20T01:14:49.167Z,86.80
2022-10-20T01:15:32.105Z,87.40
2022-10-20T01:16:19.527Z,87.30
2022-10-20T01:17:12.953Z,87.20
2022-10-20T01:17:50.612Z,87.20
2022-10-20T01:18:31.661Z,87.40
2022-10-20T01:19:19.255Z,87.60
2022-10-20T01:20:13.193Z,87.60
2022-10-20T01:20:53.895Z,88.00
2022-10-20T01:21:31.701Z,87.80
2022-10-20T01:22:24.347Z,87.30
2022-10-20T01:22:56.181Z,87.60
2022-10-20T01:23:53.467Z,87.70
2022-10-20T01:24:49.641Z,87.80
2022-10-20T01:25:52.110Z,87.80
2022-10-20T01:26:57.925Z,87.70
2022-10-20T01:28:04.724Z,87.80
2022-10-20T01:29:03.345Z,87.90
2022-10-20T01:29:56.878Z,88.40
2022-10-20T01:30:29.759Z,87.70
2022-10-20T01:31:09.317Z,87.70
2022-10-20T01:31:58.998Z,87.80
2022-10-20T01:32:38.277Z,87.30
2022-10-20T01:33:38.930Z,87.80
2022-10-20T01:34:25.899Z,87.30
2022-10-20T01:35:14.189Z,87.80
2022-10-20T01:35:52.107Z,87.80
2022-10-20T01:36:42.451Z,87.80
2022-10-20T01:37:34.019Z,87.90
2022-10-20T01:38:30.679Z,88.10
2022-10-20T01:39:16.613Z,88.10
2022-10-20T01:40:00.267Z,88.00
2022-10-20T01:40:42.868Z,87.60
2022-10-20T01:41:23.338Z,88.10
2022-10-20T01:42:03.066Z,88.30
2022-10-20T01:42:39.110Z,88.40
2022-10-20T01:43:15.264Z,88.80
2022-10-20T01:43:50.037Z,88.50
2022-10-20T01:44:27.373Z,87.90
2022-10-20T01:45:05.650Z,88.00
2022-10-20T01:45:42.796Z,88.30
2022-10-20T01:46:18.194Z,88.10
2022-10-20T01:46:51.116Z,88.90
2022-10-20T01:47:26.919Z,88.20
2022-10-20T01:48:03.192Z,88.30
2022-10-20T01:48:38.683Z,88.30
2022-10-20T01:49:12.923Z,87.80
2022-10-20T01:49:48.702Z,87.70
2022-10-20T01:50:21.869Z,89.20
2022-10-20T01:50:53.739Z,88.10
2022-10-20T01:51:28.370Z,88.40
2022-10-20T01:52:00.653Z,88.40
2022-10-20T01:52:33.085Z,88.30
2022-10-20T01:53:05.570Z,88.40
2022-10-20T01:53:37.588Z,89.00
2022-10-20T01:54:24.202Z,87.80
2022-10-20T01:54:55.964Z,88.10
2022-10-20T01:55:28.232Z,87.60
2022-10-20T01:56:01.693Z,88.00
2022-10-20T01:57:06.205Z,88.30
2022-10-20T01:58:05.707Z,87.90
2022-10-20T01:58:59.738Z,88.70
2022-10-20T01:59:31.644Z,88.10
2022-10-20T02:00:17.433Z,88.30
2022-10-20T02:00:52.837Z,88.20
2022-10-20T02:01:45.840Z,88.30
2022-10-20T02:02:45.411Z,88.20
2022-10-20T02:03:51.134Z,88.10
2022-10-20T02:04:53.188Z,88.10
2022-10-20T02:05:45.804Z,88.20
2022-10-20T02:06:41.571Z,88.20
2022-10-20T02:07:27.573Z,88.10
2022-10-20T02:08:22.326Z,88.00
2022-10-20T02:09:03.292Z,88.00
2022-10-20T02:09:43.745Z,88.20
2022-10-20T02:10:21.195Z,88.30
2022-10-20T02:10:59.667Z,88.20
2022-10-20T02:11:56.449Z,87.70
2022-10-20T02:12:35.057Z,88.50
2022-10-20T02:13:10.889Z,88.00
2022-10-20T02:13:43.495Z,88.00
2022-10-20T02:14:18.407Z,88.10
2022-10-20T02:14:51.239Z,88.20
2022-10-20T02:15:26.312Z,88.70
2022-10-20T02:16:02.855Z,88.40
2022-10-20T02:16:46.404Z,88.50
2022-10-20T02:17:20.819Z,88.50
2022-10-20T02:17:59.975Z,88.60
2022-10-20T02:18:36.642Z,89.10
2022-10-20T02:19:11.482Z,88.50
2022-10-20T02:19:45.903Z,88.50
2022-10-20T02:20:17.877Z,87.90
2022-10-20T02:20:52.699Z,88.50
2022-10-20T02:21:25.126Z,88.50
2022-10-20T02:21:57.955Z,88.50
2022-10-20T02:22:30.293Z,87.90
2022-10-20T02:23:06.023Z,88.60
2022-10-20T02:23:40.414Z,88.70
2022-10-20T02:24:15.934Z,88.60
2022-10-20T02:24:48.996Z,89.70
2022-10-20T02:25:23.122Z,88.70
2022-10-20T02:25:59.203Z,88.70
2022-10-20T02:26:35.632Z,90.00
2022-10-20T02:27:25.817Z,88.70
2022-10-20T02:28:43.387Z,88.80
2022-10-20T02:29:21.478Z,88.70
2022-10-20T02:29:59.381Z,88.70
2022-10-20T02:30:33.123Z,88.40
2022-10-20T02:31:05.573Z,88.80
2022-10-20T02:31:37.678Z,89.00
2022-10-20T02:32:12.687Z,88.90
2022-10-20T02:32:49.247Z,89.00
2022-10-20T02:33:22.965Z,88.50
2022-10-20T02:33:57.644Z,88.90
2022-10-20T02:34:29.538Z,88.50
2022-10-20T02:35:06.765Z,88.90
2022-10-20T02:35:42.215Z,88.10
2022-10-20T02:36:19.027Z,88.50
2022-10-20T02:36:50.943Z,88.00
2022-10-20T02:37:22.785Z,88.60
2022-10-20T02:37:54.597Z,88.80
2022-10-20T02:38:26.585Z,88.80
2022-10-20T02:38:58.383Z,88.70
2022-10-20T02:39:30.208Z,88.70
2022-10-20T02:40:02.136Z,89.30
2022-10-20T02:40:33.931Z,88.80
2022-10-20T02:41:05.767Z,88.80
2022-10-20T02:41:37.530Z,88.70
2022-10-20T02:42:09.377Z,88.90
2022-10-20T02:42:43.180Z,88.70
2022-10-20T02:43:15.431Z,88.70
2022-10-20T02:43:47.166Z,88.80
2022-10-20T02:44:18.948Z,88.30
2022-10-20T02:44:50.737Z,89.60
2022-10-20T02:45:22.530Z,88.80
2022-10-20T02:45:54.304Z,88.70
2022-10-20T02:46:26.384Z,88.30
2022-10-20T02:46:58.144Z,88.90
2022-10-20T02:47:29.916Z,88.80
2022-10-20T02:48:03.296Z,88.90
2022-10-20T02:48:38.144Z,88.80
2022-10-20T02:49:10.061Z,88.80
2022-10-20T02:49:41.817Z,88.20
2022-10-20T02:50:13.620Z,88.40
2022-10-20T02:50:45.352Z,88.60
2022-10-20T02:51:17.413Z,89.10
2022-10-20T02:51:49.208Z,87.90
2022-10-20T02:52:20.969Z,87.90
2022-10-20T02:52:52.690Z,88.70
2022-10-20T02:53:24.424Z,88.00
2022-10-20T02:53:56.158Z,88.60
2022-10-20T02:54:28.690Z,88.80
2022-10-20T02:55:00.706Z,88.40
2022-10-20T02:55:32.469Z,88.90
2022-10-20T02:56:04.567Z,88.80
2022-10-20T02:56:36.287Z,88.70
2022-10-20T02:57:08.058Z,88.20
2022-10-20T02:57:39.997Z,88.90
2022-10-20T02:58:11.858Z,88.50
2022-10-20T02:58:43.663Z,88.90
2022-10-20T02:59:17.073Z,88.70
2022-10-20T02:59:48.851Z,88.60
2022-10-20T03:00:21.366Z,88.60
2022-10-20T03:00:53.118Z,88.40
2022-10-20T03:01:25.304Z,88.50
2022-10-20T03:01:57.419Z,89.00
2022-10-20T03:02:29.217Z,88.20
2022-10-20T03:03:00.964Z,89.30
2022-10-20T03:03:32.715Z,89.10
2022-10-20T03:04:04.582Z,88.60
2022-10-20T03:04:36.334Z,88.40
2022-10-20T03:05:08.472Z,87.80
2022-10-20T03:05:44.222Z,88.20
2022-10-20T03:06:16.381Z,88.20
2022-10-20T03:06:48.140Z,88.30
2022-10-20T03:07:19.845Z,88.90
2022-10-20T03:07:51.642Z,88.40
2022-10-20T03:08:23.443Z,88.40
2022-10-20T03:08:55.371Z,88.40
2022-10-20T03:09:27.210Z,88.30
2022-10-20T03:09:59.179Z,88.30
2022-10-20T03:10:30.904Z,88.20
2022-10-20T03:11:03.107Z,88.20
2022-10-20T03:11:35.362Z,88.50
2022-10-20T03:12:07.239Z,88.20
2022-10-20T03:12:39.018Z,88.30
2022-10-20T03:13:11.686Z,88.40
2022-10-20T03:13:43.458Z,87.50
2022-10-20T03:14:15.482Z,88.00
2022-10-20T03:14:47.255Z,88.10
2022-10-20T03:15:19.061Z,87.60
2022-10-20T03:15:50.780Z,88.10
2022-10-20T03:16:22.574Z,88.00
2022-10-20T03:16:54.420Z,88.10
2022-10-20T03:17:26.149Z,88.00
2022-10-20T03:17:57.940Z,87.50
2022-10-20T03:18:29.805Z,88.20
2022-10-20T03:19:04.635Z,89.00
2022-10-20T03:19:40.822Z,87.70
2022-10-20T03:20:12.547Z,87.80
2022-10-20T03:20:44.640Z,87.80
2022-10-20T03:21:16.407Z,88.90
2022-10-20T03:21:49.538Z,88.10
2022-10-20T03:22:21.290Z,88.00
2022-10-20T03:22:53.081Z,88.10
2022-10-20T03:23:24.865Z,88.10
2022-10-20T03:23:56.686Z,87.90
2022-10-20T03:24:28.489Z,87.90
2022-10-20T03:25:00.214Z,88.20
2022-10-20T03:25:32.630Z,87.90
2022-10-20T03:26:06.863Z,87.90
2022-10-20T03:26:38.604Z,87.80
2022-10-20T03:27:10.342Z,87.40
2022-10-20T03:27:42.150Z,87.90
2022-10-20T03:28:13.955Z,88.00
2022-10-20T03:28:45.700Z,87.60
2022-10-20T03:29:17.534Z,87.70
2022-10-20T03:29:49.294Z,87.50
2022-10-20T03:30:21.145Z,88.00
2022-10-20T03:30:52.875Z,88.00
2022-10-20T03:31:24.724Z,88.00
2022-10-20T03:31:56.493Z,87.90
2022-10-20T03:32:28.258Z,87.40
2022-10-20T03:33:00.131Z,88.50
2022-10-20T03:33:31.958Z,88.30
2022-10-20T03:34:03.786Z,88.30
2022-10-20T03:34:35.534Z,87.80
2022-10-20T03:35:07.778Z,88.20
2022-10-20T03:35:39.504Z,88.10
2022-10-20T03:36:11.554Z,88.20
2022-10-20T03:36:43.275Z,87.50
2022-10-20T03:37:15.016Z,88.20
2022-10-20T03:37:46.879Z,87.60
2022-10-20T03:38:18.672Z,88.10
2022-10-20T03:38:50.497Z,88.00
2022-10-20T03:39:22.267Z,88.10
2022-10-20T03:39:54.005Z,87.40
2022-10-20T03:40:25.788Z,87.40
2022-10-20T03:40:57.617Z,87.40
2022-10-20T03:41:29.482Z,88.70
2022-10-20T03:42:01.258Z,88.10
2022-10-20T03:42:33.343Z,87.40
2022-10-20T03:43:05.236Z,88.00
2022-10-20T03:43:38.847Z,88.00
2022-10-20T03:44:11.191Z,87.80
2022-10-20T03:44:45.027Z,87.90
2022-10-20T03:45:18.645Z,87.90
2022-10-20T03:45:50.532Z,87.90
2022-10-20T03:46:22.286Z,88.70
2022-10-20T03:46:53.986Z,87.30
2022-10-20T03:47:25.723Z,87.80
2022-10-20T03:47:57.469Z,88.10
2022-10-20T03:48:29.747Z,87.80
2022-10-20T03:49:01.483Z,87.20
2022-10-20T03:49:33.923Z,87.20
2022-10-20T03:50:43.271Z,87.70
2022-10-20T03:51:15.681Z,87.20
2022-10-20T03:51:47.420Z,88.60
2022-10-20T03:52:19.160Z,87.70
2022-10-20T03:52:51.596Z,87.70
2022-10-20T03:53:23.514Z,87.70
2022-10-20T03:53:55.278Z,87.80
2022-10-20T03:54:27.010Z,87.70
2022-10-20T03:54:58.766Z,87.80
2022-10-20T03:56:12.369Z,87.50
2022-10-20T03:56:44.075Z,87.80
2022-10-20T03:57:15.882Z,87.40
2022-10-20T03:57:47.615Z,87.20
2022-10-20T03:58:19.389Z,87.80
2022-10-20T03:58:51.248Z,87.80
2022-10-20T03:59:24.497Z,88.10
2022-10-20T03:59:58.471Z,88.00
2022-10-20T04:00:30.199Z,87.80
2022-10-20T04:01:03.236Z,88.00
2022-10-20T04:01:35.423Z,88.20
2022-10-20T04:02:07.353Z,87.30
2022-10-20T04:02:43.475Z,88.00
2022-10-20T04:03:15.695Z,88.10
2022-10-20T04:03:47.504Z,88.20
2022-10-20T04:04:19.249Z,88.50
2022-10-20T04:04:51.641Z,87.60
2022-10-20T04:05:23.421Z,88.00
2022-10-20T04:05:55.171Z,88.50
2022-10-20T04:06:26.949Z,87.50
2022-10-20T04:06:58.710Z,87.50
2022-10-20T04:07:30.531Z,88.20
2022-10-20T04:08:04.141Z,88.00
2022-10-20T04:08:35.943Z,87.50
2022-10-20T04:09:07.779Z,88.30
2022-10-20T04:09:39.579Z,87.70
2022-10-20T04:10:11.932Z,88.80
2022-10-20T04:10:43.697Z,88.00
2022-10-20T04:11:15.504Z,88.00
2022-10-20T04:11:47.319Z,88.10
2022-10-20T04:12:19.231Z,88.10
2022-10-20T04:12:50.973Z,88.60
2022-10-20T04:13:22.823Z,88.20
2022-10-20T04:13:54.640Z,88.10
2022-10-20T04:14:26.420Z,87.70
2022-10-20T04:14:58.221Z,88.20
2022-10-20T04:15:30.154Z,88.30
2022-10-20T04:16:01.940Z,88.30
2022-10-20T04:16:33.735Z,87.70
2022-10-20T04:17:06.436Z,87.50
2022-10-20T04:18:11.358Z,88.40
2022-10-20T04:18:43.106Z,88.00
2022-10-20T04:19:15.011Z,88.10
2022-10-20T04:19:46.982Z,87.70
2022-10-20T04:20:18.819Z,88.30
2022-10-20T04:20:50.547Z,88.30
2022-10-20T04:21:22.311Z,88.10
2022-10-20T04:21:54.020Z,88.00
2022-10-20T04:22:26.018Z,87.50
2022-10-20T04:22:57.733Z,88.00
2022-10-20T04:23:29.480Z,88.00
2022-10-20T04:24:01.213Z,87.60
2022-10-20T04:24:32.953Z,88.70
2022-10-20T04:25:05.164Z,88.50
2022-10-20T04:25:40.713Z,87.60
2022-10-20T04:26:14.742Z,88.30
2022-10-20T04:27:25.160Z,88.20
2022-10-20T04:27:58.598Z,87.60
2022-10-20T04:28:30.292Z,89.10
2022-10-20T04:29:02.651Z,88.10
2022-10-20T04:29:34.598Z,87.50
2022-10-20T04:30:07.021Z,88.00
2022-10-20T04:30:39.819Z,87.50
2022-10-20T04:31:11.587Z,88.00
2022-10-20T04:31:48.154Z,87.90
2022-10-20T04:32:21.009Z,87.90
2022-10-20T04:32:52.750Z,88.00
2022-10-20T04:33:24.459Z,88.50
2022-10-20T04:33:56.244Z,87.50
2022-10-20T04:34:28.009Z,88.00
2022-10-20T04:34:59.946Z,87.40
2022-10-20T04:35:31.661Z,87.40
2022-10-20T04:36:06.780Z,88.00
2022-10-20T04:36:38.539Z,87.90
2022-10-20T04:37:10.292Z,87.40
2022-10-20T04:37:42.070Z,87.90
2022-10-20T04:38:13.807Z,87.90
2022-10-20T04:38:45.554Z,88.00
2022-10-20T04:39:17.374Z,87.40
2022-10-20T04:39:51.011Z,88.00
2022-10-20T04:40:22.731Z,87.90
2022-10-20T04:40:58.044Z,87.90
2022-10-20T04:41:32.437Z,88.50
2022-10-20T04:42:04.205Z,87.90
2022-10-20T04:42:35.938Z,87.90
2022-10-20T04:43:07.643Z,87.30
2022-10-20T04:43:39.479Z,87.90
2022-10-20T04:44:11.410Z,87.30
2022-10-20T04:44:43.347Z,87.80
2022-10-20T04:45:15.165Z,87.80
2022-10-20T04:45:46.880Z,87.80
2022-10-20T04:46:18.882Z,88.00
2022-10-20T04:46:50.648Z,87.90
2022-10-20T04:47:22.493Z,87.90
2022-10-20T04:47:54.827Z,87.80
2022-10-20T04:48:26.603Z,87.80
2022-10-20T04:48:58.318Z,87.20
2022-10-20T04:49:30.065Z,87.70
2022-10-20T04:50:01.803Z,87.90
2022-10-20T04:50:33.558Z,87.80
2022-10-20T04:51:14.739Z,87.20
2022-10-20T04:51:46.514Z,87.70
2022-10-20T04:52:20.656Z,87.30
2022-10-20T04:52:52.411Z,87.90
2022-10-20T04:53:24.181Z,88.20
2022-10-20T04:53:55.995Z,87.30
2022-10-20T04:54:27.892Z,87.90
2022-10-20T04:54:59.646Z,88.30
2022-10-20T04:55:31.402Z,87.90
2022-10-20T04:56:05.315Z,88.40
2022-10-20T04:56:37.030Z,87.90
2022-10-20T04:57:10.697Z,87.30
2022-10-20T04:57:42.475Z,87.80
2022-10-20T04:58:14.198Z,87.80
2022-10-20T04:58:54.230Z,87.80
2022-10-20T04:59:26.050Z,87.90
2022-10-20T04:59:57.740Z,88.10
2022-10-20T05:00:29.646Z,88.30
2022-10-20T05:01:08.815Z,88.10
2022-10-20T05:01:40.713Z,87.40
2022-10-20T05:02:12.603Z,87.50
2022-10-20T05:02:44.304Z,88.40
2022-10-20T05:03:16.365Z,88.00
2022-10-20T05:03:48.334Z,87.90
2022-10-20T05:04:21.854Z,87.40
2022-10-20T05:04:53.684Z,88.10
2022-10-20T05:05:25.472Z,88.00
2022-10-20T05:06:10.963Z,88.20
2022-10-20T05:06:42.707Z,88.50
2022-10-20T05:07:14.411Z,88.40
2022-10-20T05:07:46.206Z,87.40
2022-10-20T05:08:17.936Z,88.00
2022-10-20T05:08:52.105Z,88.00
2022-10-20T05:09:23.886Z,87.40
2022-10-20T05:09:55.619Z,88.30
2022-10-20T05:10:27.322Z,87.90
2022-10-20T05:11:00.908Z,87.90
2022-10-20T05:11:35.983Z,87.40
2022-10-20T05:12:08.161Z,87.80
2022-10-20T05:12:39.942Z,87.90
2022-10-20T05:13:11.708Z,87.90
2022-10-20T05:13:43.794Z,87.90
2022-10-20T05:14:15.622Z,88.00
2022-10-20T05:14:47.368Z,87.40
2022-10-20T05:15:19.076Z,87.30
2022-10-20T05:15:52.962Z,87.30
2022-10-20T05:16:25.163Z,87.30
2022-10-20T05:16:56.959Z,87.30
2022-10-20T05:17:31.596Z,87.30
2022-10-20T05:18:03.683Z,87.80
2022-10-20T05:18:36.158Z,87.20
2022-10-20T05:19:07.959Z,87.20
2022-10-20T05:19:39.692Z,88.00
2022-10-20T05:20:11.459Z,87.70
2022-10-20T05:21:07.250Z,87.20
2022-10-20T05:21:35.617Z,87.90
2022-10-20T05:22:07.367Z,87.60
2022-10-20T05:22:39.419Z,87.10
2022-10-20T05:23:11.401Z,87.70
2022-10-20T05:23:44.335Z,87.60
2022-10-20T05:24:20.960Z,88.10
2022-10-20T05:24:53.912Z,87.80
2022-10-20T05:25:35.929Z,87.80
2022-10-20T05:26:12.298Z,87.70
2022-10-20T05:26:44.431Z,87.60
2022-10-20T05:27:16.166Z,87.70
2022-10-20T05:27:47.949Z,87.20
2022-10-20T05:28:19.731Z,87.20
2022-10-20T05:28:52.221Z,87.70
2022-10-20T05:29:23.966Z,88.40
2022-10-20T05:29:55.706Z,87.60
2022-10-20T05:30:27.458Z,87.50
2022-10-20T05:31:07.129Z,87.50
2022-10-20T05:31:41.876Z,87.60
2022-10-20T05:32:13.696Z,88.30
2022-10-20T05:32:46.979Z,87.10
2022-10-20T05:33:18.703Z,87.80
2022-10-20T05:33:53.819Z,87.70
2022-10-20T05:34:25.755Z,87.60
2022-10-20T05:34:57.486Z,87.20
2022-10-20T05:35:30.079Z,87.70
2022-10-20T05:36:07.794Z,88.40
2022-10-20T05:36:39.575Z,87.70
2022-10-20T05:37:11.947Z,87.90
2022-10-20T05:37:43.666Z,87.70
2022-10-20T05:38:15.374Z,87.30
2022-10-20T05:38:47.326Z,88.40
2022-10-20T05:39:19.063Z,87.80
2022-10-20T05:39:50.852Z,87.30
2022-10-20T05:40:23.717Z,87.30
2022-10-20T05:40:55.478Z,88.10
2022-10-20T05:41:32.229Z,88.20
2022-10-20T05:42:06.576Z,87.90
2022-10-20T05:42:39.218Z,88.20
2022-10-20T05:43:11.202Z,87.50
2022-10-20T05:43:43.252Z,88.10
2022-10-20T05:44:15.027Z,87.80
2022-10-20T05:44:47.075Z,87.80
2022-10-20T05:45:18.765Z,87.70
2022-10-20T05:45:54.472Z,87.70
2022-10-20T05:46:28.091Z,87.70
2022-10-20T05:46:59.874Z,87.60
2022-10-20T05:47:31.746Z,87.80
2022-10-20T05:48:03.550Z,87.80
2022-10-20T05:48:38.349Z,87.80
2022-10-20T05:49:17.386Z,88.60
2022-10-20T05:49:49.119Z,88.70
2022-10-20T05:50:20.871Z,87.80
2022-10-20T05:50:52.583Z,87.80
2022-10-20T05:51:27.160Z,87.70
2022-10-20T05:51:58.876Z,87.60
2022-10-20T05:52:30.691Z,87.60
2022-10-20T05:53:02.418Z,87.50
2022-10-20T05:53:34.175Z,87.50
2022-10-20T05:54:06.015Z,87.60
2022-10-20T05:54:37.747Z,87.60
2022-10-20T05:55:10.304Z,87.20
2022-10-20T05:55:41.991Z,87.70
2022-10-20T05:56:19.753Z,87.70
2022-10-20T05:56:51.477Z,87.60
2022-10-20T05:57:23.590Z,87.20
2022-10-20T05:57:55.399Z,87.80
2022-10-20T05:58:27.117Z,87.90
2022-10-20T05:58:59.003Z,88.00
2022-10-20T05:59:32.288Z,88.00
2022-10-20T06:00:05.122Z,88.00
2022-10-20T06:00:52.041Z,88.00
2022-10-20T06:01:28.536Z,88.60
2022-10-20T06:02:00.403Z,88.10
2022-10-20T06:02:32.143Z,88.20
2022-10-20T06:03:03.917Z,87.80
2022-10-20T06:03:36.323Z,88.00
2022-10-20T06:04:08.987Z,87.70
2022-10-20T06:04:40.718Z,87.80
2022-10-20T06:05:12.463Z,88.10
2022-10-20T06:05:44.282Z,87.40
2022-10-20T06:06:17.199Z,87.40
2022-10-20T06:06:49.458Z,88.00
2022-10-20T06:07:21.286Z,87.80
2022-10-20T06:07:54.563Z,88.20
2022-10-20T06:08:29.041Z,87.80
2022-10-20T06:09:01.479Z,87.70
2022-10-20T06:09:33.328Z,87.80
2022-10-20T06:10:05.454Z,87.20
2022-10-20T06:10:37.290Z,87.70
2022-10-20T06:11:11.879Z,87.10
2022-10-20T06:11:43.665Z,88.20
2022-10-20T06:12:15.481Z,88.90
2022-10-20T06:12:47.236Z,87.60
2022-10-20T06:13:18.956Z,87.60
2022-10-20T06:13:53.004Z,87.80
2022-10-20T06:14:26.143Z,87.10
2022-10-20T06:14:57.872Z,87.60
2022-10-20T06:15:29.746Z,87.60
2022-10-20T06:16:11.513Z,87.00
2022-10-20T06:16:44.077Z,87.50
2022-10-20T06:17:15.818Z,87.60
2022-10-20T06:17:47.587Z,87.60
2022-10-20T06:18:19.383Z,87.60
2022-10-20T06:18:52.035Z,87.60
2022-10-20T06:19:25.374Z,87.50
2022-10-20T06:19:57.116Z,87.60
2022-10-20T06:20:28.818Z,87.10
2022-10-20T06:21:07.101Z,87.70
2022-10-20T06:21:38.925Z,87.60
2022-10-20T06:22:10.710Z,87.70
2022-10-20T06:22:42.633Z,87.70
2022-10-20T06:23:14.368Z,87.20
2022-10-20T06:23:46.169Z,87.80
2022-10-20T06:24:19.149Z,87.80
2022-10-20T06:24:50.896Z,87.20
2022-10-20T06:25:22.655Z,87.20
2022-10-20T06:25:54.618Z,87.70
2022-10-20T06:26:36.373Z,87.20
2022-10-20T06:27:08.383Z,87.70
2022-10-20T06:27:42.288Z,87.80
2022-10-20T06:28:14.027Z,87.70
2022-10-20T06:28:48.250Z,87.70
2022-10-20T06:29:20.500Z,87.30
2022-10-20T06:29:54.670Z,88.30
2022-10-20T06:30:26.890Z,88.40
2022-10-20T06:30:59.346Z,87.60
2022-10-20T06:31:34.018Z,87.20
2022-10-20T06:32:06.011Z,88.00
2022-10-20T06:32:38.210Z,87.80
2022-10-20T06:33:12.288Z,87.90
2022-10-20T06:33:45.153Z,87.70
2022-10-20T06:34:22.546Z,87.60
2022-10-20T06:34:54.279Z,88.10
2022-10-20T06:35:25.978Z,87.80
2022-10-20T06:36:01.371Z,87.60
2022-10-20T06:36:36.512Z,87.70
2022-10-20T06:37:10.060Z,87.70
2022-10-20T06:37:43.916Z,87.90
2022-10-20T06:38:15.726Z,87.30
2022-10-20T06:38:48.252Z,87.80
2022-10-20T06:39:22.650Z,87.90
2022-10-20T06:39:57.548Z,87.70
2022-10-20T06:40:29.302Z,87.70
2022-10-20T06:41:05.682Z,87.10
2022-10-20T06:41:37.642Z,87.10
2022-10-20T06:42:11.341Z,87.70
2022-10-20T06:42:50.077Z,87.70
2022-10-20T06:43:22.192Z,87.70
2022-10-20T06:43:58.797Z,87.80
2022-10-20T06:44:30.544Z,87.60
2022-10-20T06:45:02.411Z,87.80
2022-10-20T06:45:34.170Z,88.20
2022-10-20T06:46:08.388Z,87.10
2022-10-20T06:46:40.125Z,87.70
2022-10-20T06:47:11.852Z,87.40
2022-10-20T06:47:43.578Z,87.10
2022-10-20T06:48:15.410Z,88.20
2022-10-20T06:48:47.186Z,87.60
2022-10-20T06:49:19.582Z,87.80
2022-10-20T06:49:51.296Z,87.90
2022-10-20T06:50:23.043Z,87.80
2022-10-20T06:51:03.452Z,87.70
2022-10-20T06:51:35.876Z,87.20
2022-10-20T06:52:07.705Z,87.60
2022-10-20T06:52:39.711Z,87.70
2022-10-20T06:53:12.347Z,87.60
2022-10-20T06:53:46.682Z,87.60
2022-10-20T06:54:18.879Z,87.80
2022-10-20T06:54:50.619Z,88.40
2022-10-20T06:55:22.337Z,87.80
2022-10-20T06:56:08.466Z,87.90
2022-10-20T06:56:41.016Z,87.70
2022-10-20T06:57:12.905Z,88.10
2022-10-20T06:57:44.576Z,87.80
2022-10-20T06:58:16.285Z,87.60
2022-10-20T06:58:49.998Z,87.10
2022-10-20T06:59:21.724Z,87.70
2022-10-20T06:59:53.449Z,88.10
2022-10-20T07:00:25.235Z,87.70
2022-10-20T07:01:23.313Z,87.60
2022-10-20T07:01:55.311Z,87.50
2022-10-20T07:02:27.129Z,87.90
2022-10-20T07:02:58.825Z,87.50
2022-10-20T07:03:32.558Z,88.20
2022-10-20T07:04:13.891Z,87.50
2022-10-20T07:04:45.596Z,88.00
2022-10-20T07:05:17.395Z,87.50
2022-10-20T07:05:49.117Z,88.30
2022-10-20T07:06:28.352Z,88.10
2022-10-20T07:07:00.084Z,87.50
2022-10-20T07:07:31.891Z,87.70
2022-10-20T07:08:03.732Z,87.90
2022-10-20T07:08:36.671Z,87.70
2022-10-20T07:09:13.855Z,87.70
2022-10-20T07:09:45.752Z,87.60
2022-10-20T07:10:17.588Z,87.70
2022-10-20T07:10:59.840Z,87.70
2022-10-20T07:11:32.677Z,88.50
2022-10-20T07:12:04.692Z,87.10
2022-10-20T07:12:36.552Z,87.60
2022-10-20T07:13:08.467Z,87.50
2022-10-20T07:13:40.879Z,87.00
2022-10-20T07:14:13.889Z,87.40
2022-10-20T07:14:45.707Z,88.20
2022-10-20T07:15:17.490Z,88.20
2022-10-20T07:15:52.224Z,87.50
2022-10-20T07:16:27.106Z,88.00
2022-10-20T07:16:58.814Z,87.60
2022-10-20T07:17:30.635Z,87.80
2022-10-20T07:18:02.386Z,88.70
2022-10-20T07:18:35.905Z,87.90
2022-10-20T07:19:07.793Z,88.50
2022-10-20T07:19:39.508Z,88.70
2022-10-20T07:20:11.263Z,87.80
2022-10-20T07:20:42.948Z,87.80
2022-10-20T07:21:18.018Z,87.20
2022-10-20T07:21:49.728Z,87.70
2022-10-20T07:22:21.463Z,87.90
2022-10-20T07:22:53.202Z,87.30
2022-10-20T07:23:26.693Z,87.60
2022-10-20T07:24:00.925Z,87.40
2022-10-20T07:24:32.658Z,87.90
2022-10-20T07:25:06.795Z,88.50
2022-10-20T07:25:38.576Z,87.70
2022-10-20T07:26:15.170Z,87.30
2022-10-20T07:26:47.316Z,87.70
2022-10-20T07:27:19.070Z,87.70
2022-10-20T07:27:50.821Z,87.80